sensor_id;sensor_type;location;lat;lon;timestamp;pressure;altitude;pressure_sealevel;temperature;humidity
62458;BME280;48509;52.122;5.250;2022-11-04T00:01:15;99987.0;;;13.09;97.16
62458;BME280;48509;52.122;5.250;2022-11-04T00:02:52;99994.0;;;13.09;97.29
62458;BME280;48509;52.122;5.250;2022-11-04T00:04:28;99995.0;;;13.15;96.63
62458;BME280;48509;52.122;5.250;2022-11-04T00:08:48;100001.0;;;13.2;96.08
62458;BME280;48509;52.122;5.250;2022-11-04T00:12:23;100003.0;;;13.21;95.54
62458;BME280;48509;52.122;5.250;2022-11-04T00:14:00;100008.0;;;13.11;96.24
62458;BME280;48509;52.122;5.250;2022-11-04T00:18:29;100011.0;;;13.13;95.49
62458;BME280;48509;52.122;5.250;2022-11-04T00:29:24;100024.0;;;13.06;95.89
62458;BME280;48509;52.122;5.250;2022-11-04T00:33:24;100026.0;;;13.11;95.7
62458;BME280;48509;52.122;5.250;2022-11-04T00:35:01;100038.0;;;12.91;95.83
62458;BME280;48509;52.122;5.250;2022-11-04T00:36:37;100039.0;;;12.99;95.59
62458;BME280;48509;52.122;5.250;2022-11-04T00:38:13;100040.0;;;12.99;95.61
62458;BME280;48509;52.122;5.250;2022-11-04T00:41:25;100042.0;;;13.21;94.1
62458;BME280;48509;52.122;5.250;2022-11-04T00:43:01;100043.0;;;13.05;94.78
62458;BME280;48509;52.122;5.250;2022-11-04T00:44:37;100048.0;;;12.86;95.63
62458;BME280;48509;52.122;5.250;2022-11-04T00:46:13;100051.0;;;12.97;95.38
62458;BME280;48509;52.122;5.250;2022-11-04T00:49:26;100055.0;;;12.96;95.19
62458;BME280;48509;52.122;5.250;2022-11-04T00:51:02;100052.0;;;12.96;95.54
62458;BME280;48509;52.122;5.250;2022-11-04T00:52:38;100060.0;;;12.94;95.85
62458;BME280;48509;52.122;5.250;2022-11-04T00:55:51;100060.0;;;12.8;96.14
62458;BME280;48509;52.122;5.250;2022-11-04T00:57:28;100062.0;;;12.76;97.28
62458;BME280;48509;52.122;5.250;2022-11-04T00:59:04;100060.0;;;12.93;96.26
62458;BME280;48509;52.122;5.250;2022-11-04T01:02:17;100065.0;;;12.96;96.25
62458;BME280;48509;52.122;5.250;2022-11-04T01:03:54;100069.0;;;13.05;95.37
62458;BME280;48509;52.122;5.250;2022-11-04T01:05:31;100076.0;;;12.91;95.46
62458;BME280;48509;52.122;5.250;2022-11-04T01:07:07;100075.0;;;13.0;95.45
62458;BME280;48509;52.122;5.250;2022-11-04T01:10:21;100072.0;;;12.94;96.12
62458;BME280;48509;52.122;5.250;2022-11-04T01:11:57;100073.0;;;12.95;95.44
62458;BME280;48509;52.122;5.250;2022-11-04T01:13:34;100084.0;;;12.93;96.0
62458;BME280;48509;52.122;5.250;2022-11-04T01:16:48;100091.0;;;12.91;96.13
62458;BME280;48509;52.122;5.250;2022-11-04T01:18:24;100092.0;;;12.84;96.52
62458;BME280;48509;52.122;5.250;2022-11-04T01:20:00;100094.0;;;12.9;96.17
62458;BME280;48509;52.122;5.250;2022-11-04T01:23:13;100098.0;;;13.12;94.76
62458;BME280;48509;52.122;5.250;2022-11-04T01:24:49;100105.0;;;12.97;95.03
62458;BME280;48509;52.122;5.250;2022-11-04T01:26:27;100101.0;;;12.9;95.9
62458;BME280;48509;52.122;5.250;2022-11-04T01:28:03;100114.0;;;12.98;94.68
62458;BME280;48509;52.122;5.250;2022-11-04T01:31:17;100115.0;;;13.03;94.37
62458;BME280;48509;52.122;5.250;2022-11-04T01:32:58;100121.0;;;12.74;95.15
62458;BME280;48509;52.122;5.250;2022-11-04T01:34:34;100128.0;;;12.85;95.1
62458;BME280;48509;52.122;5.250;2022-11-04T01:37:47;100125.0;;;12.8;95.27
62458;BME280;48509;52.122;5.250;2022-11-04T01:39:23;100132.0;;;12.63;94.9
62458;BME280;48509;52.122;5.250;2022-11-04T01:41:00;100137.0;;;12.63;94.53
62458;BME280;48509;52.122;5.250;2022-11-04T01:45:19;100132.0;;;12.53;95.14
62458;BME280;48509;52.122;5.250;2022-11-04T01:46:56;100135.0;;;12.35;94.31
62458;BME280;48509;52.122;5.250;2022-11-04T01:50:13;100134.0;;;12.54;93.31
62458;BME280;48509;52.122;5.250;2022-11-04T01:51:56;100135.0;;;12.43;93.74
62458;BME280;48509;52.122;5.250;2022-11-04T01:53:38;100137.0;;;12.54;93.1
62458;BME280;48509;52.122;5.250;2022-11-04T01:55:19;100138.0;;;12.37;93.73
62458;BME280;48509;52.122;5.250;2022-11-04T01:58:43;100141.0;;;12.33;93.86
62458;BME280;48509;52.122;5.250;2022-11-04T02:00:24;100155.0;;;12.28;94.23
62458;BME280;48509;52.122;5.250;2022-11-04T02:02:00;100150.0;;;12.29;93.74
62458;BME280;48509;52.122;5.250;2022-11-04T02:03:41;100150.0;;;12.37;93.39
62458;BME280;48509;52.122;5.250;2022-11-04T02:06:59;100147.0;;;12.42;92.28
62458;BME280;48509;52.122;5.250;2022-11-04T02:08:38;100147.0;;;12.37;92.37
62458;BME280;48509;52.122;5.250;2022-11-04T02:10:17;100151.0;;;12.34;92.0
62458;BME280;48509;52.122;5.250;2022-11-04T02:14:40;100162.0;;;12.17;93.63
62458;BME280;48509;52.122;5.250;2022-11-04T02:16:22;100159.0;;;12.27;93.22
62458;BME280;48509;52.122;5.250;2022-11-04T02:20:10;100165.0;;;12.12;94.19
62458;BME280;48509;52.122;5.250;2022-11-04T02:22:09;100175.0;;;12.18;94.31
62458;BME280;48509;52.122;5.250;2022-11-04T02:24:21;100173.0;;;12.12;94.3
62458;BME280;48509;52.122;5.250;2022-11-04T02:27:14;100189.0;;;11.98;95.66
62458;BME280;48509;52.122;5.250;2022-11-04T02:29:19;100190.0;;;12.07;94.52
62458;BME280;48509;52.122;5.250;2022-11-04T02:31:27;100197.0;;;11.94;95.15
62458;BME280;48509;52.122;5.250;2022-11-04T02:33:17;100199.0;;;12.0;94.64
62458;BME280;48509;52.122;5.250;2022-11-04T02:36:43;100203.0;;;12.07;93.95
62458;BME280;48509;52.122;5.250;2022-11-04T02:38:30;100205.0;;;12.05;94.12
62458;BME280;48509;52.122;5.250;2022-11-04T02:40:18;100200.0;;;11.85;94.4
62458;BME280;48509;52.122;5.250;2022-11-04T02:42:08;100201.0;;;11.98;94.69
62458;BME280;48509;52.122;5.250;2022-11-04T02:43:53;100208.0;;;12.04;94.11
62458;BME280;48509;52.122;5.250;2022-11-04T02:45:45;100211.0;;;12.0;94.71
62458;BME280;48509;52.122;5.250;2022-11-04T02:49:09;100206.0;;;11.97;94.55
62458;BME280;48509;52.122;5.250;2022-11-04T02:50:51;100207.0;;;12.02;93.79
62458;BME280;48509;52.122;5.250;2022-11-04T02:52:37;100206.0;;;12.12;92.9
62458;BME280;48509;52.122;5.250;2022-11-04T02:54:20;100211.0;;;12.0;94.16
62458;BME280;48509;52.122;5.250;2022-11-04T02:56:01;100214.0;;;11.88;95.31
62458;BME280;48509;52.122;5.250;2022-11-04T02:59:24;100215.0;;;12.0;94.23
62458;BME280;48509;52.122;5.250;2022-11-04T03:01:14;100216.0;;;12.12;93.21
62458;BME280;48509;52.122;5.250;2022-11-04T03:02:56;100219.0;;;12.03;93.6
62458;BME280;48509;52.122;5.250;2022-11-04T03:04:37;100221.0;;;11.93;94.53
62458;BME280;48509;52.122;5.250;2022-11-04T03:08:04;100223.0;;;11.97;94.43
62458;BME280;48509;52.122;5.250;2022-11-04T03:09:46;100226.0;;;11.86;95.49
62458;BME280;48509;52.122;5.250;2022-11-04T03:11:37;100230.0;;;11.89;94.68
62458;BME280;48509;52.122;5.250;2022-11-04T03:13:19;100232.0;;;11.82;95.34
62458;BME280;48509;52.122;5.250;2022-11-04T03:15:01;100230.0;;;11.74;95.16
62458;BME280;48509;52.122;5.250;2022-11-04T03:18:28;100230.0;;;11.66;95.63
62458;BME280;48509;52.122;5.250;2022-11-04T03:20:12;100225.0;;;11.7;95.8
62458;BME280;48509;52.122;5.250;2022-11-04T03:21:56;100226.0;;;11.63;94.98
62458;BME280;48509;52.122;5.250;2022-11-04T03:23:34;100233.0;;;11.62;95.2
62458;BME280;48509;52.122;5.250;2022-11-04T03:25:11;100241.0;;;11.62;95.22
62458;BME280;48509;52.122;5.250;2022-11-04T03:28:40;100240.0;;;11.56;95.2
62458;BME280;48509;52.122;5.250;2022-11-04T03:30:21;100244.0;;;11.45;95.42
62458;BME280;48509;52.122;5.250;2022-11-04T03:32:04;100247.0;;;11.31;96.28
62458;BME280;48509;52.122;5.250;2022-11-04T03:33:46;100249.0;;;11.41;95.24
62458;BME280;48509;52.122;5.250;2022-11-04T03:37:00;100255.0;;;11.27;96.05
62458;BME280;48509;52.122;5.250;2022-11-04T03:38:37;100251.0;;;11.26;95.77
62458;BME280;48509;52.122;5.250;2022-11-04T03:40:14;100255.0;;;11.34;95.11
62458;BME280;48509;52.122;5.250;2022-11-04T03:43:33;100255.0;;;11.28;94.56
62458;BME280;48509;52.122;5.250;2022-11-04T03:45:12;100257.0;;;11.17;94.61
62458;BME280;48509;52.122;5.250;2022-11-04T03:46:50;100256.0;;;11.12;94.46
62458;BME280;48509;52.122;5.250;2022-11-04T03:48:26;100265.0;;;11.0;95.84
62458;BME280;48509;52.122;5.250;2022-11-04T03:51:49;100264.0;;;11.1;95.46
62458;BME280;48509;52.122;5.250;2022-11-04T03:53:26;100264.0;;;11.12;94.49
62458;BME280;48509;52.122;5.250;2022-11-04T03:55:06;100265.0;;;11.19;93.23
62458;BME280;48509;52.122;5.250;2022-11-04T03:59:58;100269.0;;;10.94;94.35
62458;BME280;48509;52.122;5.250;2022-11-04T04:01:45;100273.0;;;10.72;94.95
62458;BME280;48509;52.122;5.250;2022-11-04T04:03:27;100277.0;;;10.67;96.12
62458;BME280;48509;52.122;5.250;2022-11-04T04:05:11;100278.0;;;10.69;95.91
62458;BME280;48509;52.122;5.250;2022-11-04T04:08:43;100278.0;;;10.6;95.75
62458;BME280;48509;52.122;5.250;2022-11-04T04:10:59;100285.0;;;10.53;96.43
62458;BME280;48509;52.122;5.250;2022-11-04T04:12:44;100287.0;;;10.55;96.49
62458;BME280;48509;52.122;5.250;2022-11-04T04:14:41;100286.0;;;10.51;95.84
62458;BME280;48509;52.122;5.250;2022-11-04T04:16:23;100284.0;;;10.61;94.93
62458;BME280;48509;52.122;5.250;2022-11-04T04:18:04;100283.0;;;10.5;96.09
62458;BME280;48509;52.122;5.250;2022-11-04T04:19:48;100287.0;;;10.44;95.94
62458;BME280;48509;52.122;5.250;2022-11-04T04:29:52;100298.0;;;10.47;96.08
62458;BME280;48509;52.122;5.250;2022-11-04T04:32:03;100297.0;;;10.5;96.21
62458;BME280;48509;52.122;5.250;2022-11-04T04:33:39;100300.0;;;10.56;95.86
62458;BME280;48509;52.122;5.250;2022-11-04T04:35:50;100302.0;;;10.35;96.8
62458;BME280;48509;52.122;5.250;2022-11-04T04:37:30;100305.0;;;10.35;96.85
62458;BME280;48509;52.122;5.250;2022-11-04T04:46:37;100307.0;;;10.65;94.7
62458;BME280;48509;52.122;5.250;2022-11-04T04:48:17;100311.0;;;10.64;94.65
62458;BME280;48509;52.122;5.250;2022-11-04T04:49:56;100309.0;;;10.43;94.75
62458;BME280;48509;52.122;5.250;2022-11-04T04:51:35;100313.0;;;10.35;95.87
62458;BME280;48509;52.122;5.250;2022-11-04T04:53:13;100318.0;;;10.23;95.71
62458;BME280;48509;52.122;5.250;2022-11-04T04:56:26;100321.0;;;10.19;96.28
62458;BME280;48509;52.122;5.250;2022-11-04T04:58:02;100323.0;;;10.31;95.16
62458;BME280;48509;52.122;5.250;2022-11-04T04:59:38;100323.0;;;10.33;95.46
62458;BME280;48509;52.122;5.250;2022-11-04T05:02:51;100326.0;;;10.27;95.69
62458;BME280;48509;52.122;5.250;2022-11-04T05:04:28;100333.0;;;10.34;95.31
62458;BME280;48509;52.122;5.250;2022-11-04T05:06:04;100333.0;;;10.39;95.24
62458;BME280;48509;52.122;5.250;2022-11-04T05:09:17;100340.0;;;10.39;94.82
62458;BME280;48509;52.122;5.250;2022-11-04T05:10:53;100339.0;;;10.3;94.94
62458;BME280;48509;52.122;5.250;2022-11-04T05:13:24;100345.0;;;10.42;94.73
62458;BME280;48509;52.122;5.250;2022-11-04T05:15:01;100343.0;;;10.23;95.44
62458;BME280;48509;52.122;5.250;2022-11-04T05:16:37;100341.0;;;10.11;96.07
62458;BME280;48509;52.122;5.250;2022-11-04T05:18:13;100344.0;;;10.15;95.74
62458;BME280;48509;52.122;5.250;2022-11-04T05:21:25;100341.0;;;10.14;95.9
62458;BME280;48509;52.122;5.250;2022-11-04T05:23:01;100340.0;;;10.1;96.33
62458;BME280;48509;52.122;5.250;2022-11-04T05:24:37;100337.0;;;10.08;96.39
62458;BME280;48509;52.122;5.250;2022-11-04T05:27:51;100335.0;;;10.07;96.95
62458;BME280;48509;52.122;5.250;2022-11-04T05:29:27;100341.0;;;10.02;96.94
62458;BME280;48509;52.122;5.250;2022-11-04T05:31:04;100342.0;;;9.94;97.13
62458;BME280;48509;52.122;5.250;2022-11-04T05:34:17;100342.0;;;9.91;97.16
62458;BME280;48509;52.122;5.250;2022-11-04T05:35:54;100348.0;;;9.93;98.14
62458;BME280;48509;52.122;5.250;2022-11-04T05:37:30;100345.0;;;9.9;97.37
62458;BME280;48509;52.122;5.250;2022-11-04T05:39:06;100348.0;;;9.91;97.03
62458;BME280;48509;52.122;5.250;2022-11-04T05:42:22;100347.0;;;9.91;97.05
62458;BME280;48509;52.122;5.250;2022-11-04T05:44:00;100351.0;;;9.84;96.94
62458;BME280;48509;52.122;5.250;2022-11-04T05:45:36;100357.0;;;9.89;95.87
62458;BME280;48509;52.122;5.250;2022-11-04T05:48:49;100360.0;;;9.84;96.22
62458;BME280;48509;52.122;5.250;2022-11-04T05:50:26;100366.0;;;9.8;96.59
62458;BME280;48509;52.122;5.250;2022-11-04T05:52:04;100374.0;;;9.94;95.85
62458;BME280;48509;52.122;5.250;2022-11-04T05:55:16;100373.0;;;9.8;96.16
62458;BME280;48509;52.122;5.250;2022-11-04T05:56:52;100375.0;;;9.89;95.83
62458;BME280;48509;52.122;5.250;2022-11-04T05:58:28;100376.0;;;9.9;94.73
62458;BME280;48509;52.122;5.250;2022-11-04T06:00:06;100380.0;;;9.8;95.75
62458;BME280;48509;52.122;5.250;2022-11-04T06:03:21;100380.0;;;9.77;95.64
62458;BME280;48509;52.122;5.250;2022-11-04T06:04:57;100386.0;;;9.68;96.43
62458;BME280;48509;52.122;5.250;2022-11-04T06:06:34;100386.0;;;9.63;96.02
62458;BME280;48509;52.122;5.250;2022-11-04T06:09:48;100396.0;;;9.53;96.31
62458;BME280;48509;52.122;5.250;2022-11-04T06:11:26;100395.0;;;9.47;96.24
62458;BME280;48509;52.122;5.250;2022-11-04T06:13:02;100400.0;;;9.48;95.99
62458;BME280;48509;52.122;5.250;2022-11-04T06:14:39;100411.0;;;9.35;96.88
62458;BME280;48509;52.122;5.250;2022-11-04T06:17:52;100405.0;;;9.5;95.62
62458;BME280;48509;52.122;5.250;2022-11-04T06:19:28;100408.0;;;9.64;95.36
62458;BME280;48509;52.122;5.250;2022-11-04T06:21:07;100413.0;;;9.4;95.82
62458;BME280;48509;52.122;5.250;2022-11-04T06:24:33;100412.0;;;9.32;96.41
62458;BME280;48509;52.122;5.250;2022-11-04T06:26:11;100410.0;;;9.31;96.89
62458;BME280;48509;52.122;5.250;2022-11-04T06:27:48;100410.0;;;9.31;96.46
62458;BME280;48509;52.122;5.250;2022-11-04T06:29:24;100414.0;;;9.28;96.63
62458;BME280;48509;52.122;5.250;2022-11-04T06:32:39;100417.0;;;9.33;96.68
62458;BME280;48509;52.122;5.250;2022-11-04T06:34:15;100418.0;;;9.42;96.39
62458;BME280;48509;52.122;5.250;2022-11-04T06:35:51;100426.0;;;9.35;96.1
62458;BME280;48509;52.122;5.250;2022-11-04T06:39:08;100425.0;;;9.26;97.31
62458;BME280;48509;52.122;5.250;2022-11-04T06:40:44;100424.0;;;9.34;96.93
62458;BME280;48509;52.122;5.250;2022-11-04T06:42:20;100419.0;;;9.39;96.71
62458;BME280;48509;52.122;5.250;2022-11-04T06:43:56;100419.0;;;9.33;95.96
62458;BME280;48509;52.122;5.250;2022-11-04T06:47:09;100419.0;;;9.32;96.26
62458;BME280;48509;52.122;5.250;2022-11-04T06:48:45;100419.0;;;9.44;95.74
62458;BME280;48509;52.122;5.250;2022-11-04T06:50:21;100425.0;;;9.43;95.26
62458;BME280;48509;52.122;5.250;2022-11-04T06:53:33;100430.0;;;9.39;95.07
62458;BME280;48509;52.122;5.250;2022-11-04T06:55:09;100433.0;;;9.5;95.28
62458;BME280;48509;52.122;5.250;2022-11-04T06:56:46;100433.0;;;9.52;95.87
62458;BME280;48509;52.122;5.250;2022-11-04T06:59:59;100438.0;;;9.33;97.04
62458;BME280;48509;52.122;5.250;2022-11-04T07:01:35;100437.0;;;9.35;96.6
62458;BME280;48509;52.122;5.250;2022-11-04T07:03:12;100446.0;;;9.4;96.31
62458;BME280;48509;52.122;5.250;2022-11-04T07:06:25;100450.0;;;9.48;96.0
62458;BME280;48509;52.122;5.250;2022-11-04T07:08:01;100452.0;;;9.52;95.84
62458;BME280;48509;52.122;5.250;2022-11-04T07:09:38;100447.0;;;9.44;96.45
62458;BME280;48509;52.122;5.250;2022-11-04T07:11:15;100455.0;;;9.56;96.09
62458;BME280;48509;52.122;5.250;2022-11-04T07:14:30;100455.0;;;9.57;95.92
62458;BME280;48509;52.122;5.250;2022-11-04T07:16:07;100455.0;;;9.56;96.26
62458;BME280;48509;52.122;5.250;2022-11-04T07:17:44;100455.0;;;9.66;95.99
62458;BME280;48509;52.122;5.250;2022-11-04T07:20:56;100458.0;;;9.6;96.5
62458;BME280;48509;52.122;5.250;2022-11-04T07:22:33;100455.0;;;9.6;96.63
62458;BME280;48509;52.122;5.250;2022-11-04T07:24:09;100459.0;;;9.5;97.05
62458;BME280;48509;52.122;5.250;2022-11-04T07:29:00;100459.0;;;9.68;96.07
62458;BME280;48509;52.122;5.250;2022-11-04T07:30:37;100457.0;;;9.65;96.12
62458;BME280;48509;52.122;5.250;2022-11-04T07:32:13;100462.0;;;9.61;97.04
62458;BME280;48509;52.122;5.250;2022-11-04T07:35:26;100463.0;;;9.68;96.91
62458;BME280;48509;52.122;5.250;2022-11-04T07:37:02;100460.0;;;9.74;96.19
62458;BME280;48509;52.122;5.250;2022-11-04T07:38:38;100470.0;;;9.65;96.82
62458;BME280;48509;52.122;5.250;2022-11-04T07:41:52;100470.0;;;9.64;96.68
62458;BME280;48509;52.122;5.250;2022-11-04T07:43:29;100477.0;;;9.56;97.47
62458;BME280;48509;52.122;5.250;2022-11-04T07:45:06;100484.0;;;9.64;97.7
62458;BME280;48509;52.122;5.250;2022-11-04T07:46:43;100485.0;;;9.57;97.22
62458;BME280;48509;52.122;5.250;2022-11-04T07:49:56;100487.0;;;9.64;97.67
62458;BME280;48509;52.122;5.250;2022-11-04T07:51:32;100487.0;;;9.81;96.71
62458;BME280;48509;52.122;5.250;2022-11-04T07:53:10;100486.0;;;9.82;96.46
62458;BME280;48509;52.122;5.250;2022-11-04T07:56:24;100489.0;;;9.75;96.77
62458;BME280;48509;52.122;5.250;2022-11-04T07:58:02;100484.0;;;9.97;96.04
62458;BME280;48509;52.122;5.250;2022-11-04T07:59:38;100488.0;;;9.98;96.19
62458;BME280;48509;52.122;5.250;2022-11-04T08:02:58;100492.0;;;10.11;95.62
62458;BME280;48509;52.122;5.250;2022-11-04T08:04:34;100498.0;;;10.3;94.98
62458;BME280;48509;52.122;5.250;2022-11-04T08:06:12;100500.0;;;10.24;95.65
62458;BME280;48509;52.122;5.250;2022-11-04T08:07:48;100503.0;;;10.18;96.59
62458;BME280;48509;52.122;5.250;2022-11-04T08:11:03;100499.0;;;10.14;96.89
62458;BME280;48509;52.122;5.250;2022-11-04T08:12:41;100502.0;;;10.14;96.79
62458;BME280;48509;52.122;5.250;2022-11-04T08:14:17;100499.0;;;10.1;97.36
62458;BME280;48509;52.122;5.250;2022-11-04T08:17:31;100508.0;;;10.08;97.21
62458;BME280;48509;52.122;5.250;2022-11-04T08:19:07;100512.0;;;10.28;96.13
62458;BME280;48509;52.122;5.250;2022-11-04T08:20:47;100517.0;;;10.3;96.01
62458;BME280;48509;52.122;5.250;2022-11-04T08:22:23;100521.0;;;10.28;96.15
62458;BME280;48509;52.122;5.250;2022-11-04T08:25:39;100520.0;;;10.32;96.61
62458;BME280;48509;52.122;5.250;2022-11-04T08:27:14;100525.0;;;10.31;96.88
62458;BME280;48509;52.122;5.250;2022-11-04T08:28:51;100526.0;;;10.51;95.91
62458;BME280;48509;52.122;5.250;2022-11-04T08:32:04;100527.0;;;10.48;96.05
62458;BME280;48509;52.122;5.250;2022-11-04T08:33:42;100531.0;;;10.58;95.76
62458;BME280;48509;52.122;5.250;2022-11-04T08:35:19;100541.0;;;10.68;95.32
62458;BME280;48509;52.122;5.250;2022-11-04T08:36:56;100543.0;;;10.72;95.29
62458;BME280;48509;52.122;5.250;2022-11-04T08:40:11;100546.0;;;10.68;96.5
62458;BME280;48509;52.122;5.250;2022-11-04T08:41:49;100544.0;;;10.84;95.92
62458;BME280;48509;52.122;5.250;2022-11-04T08:43:26;100546.0;;;10.81;96.45
62458;BME280;48509;52.122;5.250;2022-11-04T08:46:41;100545.0;;;11.01;95.54
62458;BME280;48509;52.122;5.250;2022-11-04T08:48:18;100551.0;;;11.07;94.94
62458;BME280;48509;52.122;5.250;2022-11-04T08:49:55;100553.0;;;10.99;95.47
62458;BME280;48509;52.122;5.250;2022-11-04T08:51:33;100558.0;;;10.89;97.16
62458;BME280;48509;52.122;5.250;2022-11-04T08:54:47;100560.0;;;11.02;97.08
62458;BME280;48509;52.122;5.250;2022-11-04T08:56:25;100562.0;;;10.99;97.52
62458;BME280;48509;52.122;5.250;2022-11-04T08:58:03;100562.0;;;11.24;96.57
62458;BME280;48509;52.122;5.250;2022-11-04T09:01:16;100567.0;;;11.43;95.24
62458;BME280;48509;52.122;5.250;2022-11-04T09:02:54;100570.0;;;11.38;95.58
62458;BME280;48509;52.122;5.250;2022-11-04T09:04:30;100574.0;;;11.48;95.01
62458;BME280;48509;52.122;5.250;2022-11-04T09:07:48;100576.0;;;11.53;94.75
62458;BME280;48509;52.122;5.250;2022-11-04T09:09:24;100576.0;;;11.53;95.2
62458;BME280;48509;52.122;5.250;2022-11-04T09:11:00;100574.0;;;11.49;95.6
62458;BME280;48509;52.122;5.250;2022-11-04T09:12:36;100580.0;;;11.64;95.4
62458;BME280;48509;52.122;5.250;2022-11-04T09:15:49;100578.0;;;11.61;96.11
62458;BME280;48509;52.122;5.250;2022-11-04T09:17:26;100584.0;;;11.61;96.1
62458;BME280;48509;52.122;5.250;2022-11-04T09:19:02;100578.0;;;11.49;96.62
62458;BME280;48509;52.122;5.250;2022-11-04T09:22:17;100581.0;;;11.4;97.04
62458;BME280;48509;52.122;5.250;2022-11-04T09:23:37;100578.0;;;11.4;96.94
62458;BME280;48509;52.122;5.250;2022-11-04T09:27:03;100586.0;;;11.53;96.27
62458;BME280;48509;52.122;5.250;2022-11-04T09:28:41;100594.0;;;11.69;95.57
62458;BME280;48509;52.122;5.250;2022-11-04T09:38:08;100611.0;;;11.81;96.72
62458;BME280;48509;52.122;5.250;2022-11-04T09:39:58;100616.0;;;12.0;95.92
62458;BME280;48509;52.122;5.250;2022-11-04T09:43:43;100625.0;;;12.02;96.53
62458;BME280;48509;52.122;5.250;2022-11-04T09:45:26;100626.0;;;12.2;96.55
62458;BME280;48509;52.122;5.250;2022-11-04T09:47:08;100632.0;;;12.31;96.8
62458;BME280;48509;52.122;5.250;2022-11-04T09:48:47;100632.0;;;12.32;97.32
62458;BME280;48509;52.122;5.250;2022-11-04T09:50:30;100628.0;;;12.43;97.4
62458;BME280;48509;52.122;5.250;2022-11-04T09:53:56;100630.0;;;12.42;97.92
62458;BME280;48509;52.122;5.250;2022-11-04T09:55:38;100628.0;;;12.36;97.0
62458;BME280;48509;52.122;5.250;2022-11-04T09:57:17;100625.0;;;12.41;97.1
62458;BME280;48509;52.122;5.250;2022-11-04T09:58:14;100628.0;;;12.36;97.0
62458;BME280;48509;52.122;5.250;2022-11-04T09:58:54;100632.0;;;12.47;97.29
62458;BME280;48509;52.122;5.250;2022-11-04T09:59:51;100632.0;;;12.47;97.29
62458;BME280;48509;52.122;5.250;2022-11-04T10:01:35;100631.0;;;12.53;97.35
62458;BME280;48509;52.122;5.250;2022-11-04T10:02:23;100631.0;;;12.53;97.35
62458;BME280;48509;52.122;5.250;2022-11-04T10:03:21;100627.0;;;12.51;98.25
62458;BME280;48509;52.122;5.250;2022-11-04T10:04:17;100627.0;;;12.51;98.25
62458;BME280;48509;52.122;5.250;2022-11-04T10:05:14;100636.0;;;12.66;98.35
62458;BME280;48509;52.122;5.250;2022-11-04T10:06:07;100636.0;;;12.66;98.35
62458;BME280;48509;52.122;5.250;2022-11-04T10:07:05;100641.0;;;12.71;96.07
62458;BME280;48509;52.122;5.250;2022-11-04T10:08:15;100641.0;;;12.71;96.07
62458;BME280;48509;52.122;5.250;2022-11-04T10:11:42;100658.0;;;12.9;94.49
62458;BME280;48509;52.122;5.250;2022-11-04T10:13:30;100664.0;;;12.93;94.36
62458;BME280;48509;52.122;5.250;2022-11-04T10:15:30;100666.0;;;12.92;94.35
62458;BME280;48509;52.122;5.250;2022-11-04T10:16:25;100666.0;;;12.92;94.35
62458;BME280;48509;52.122;5.250;2022-11-04T10:18:25;100672.0;;;12.89;93.7
62458;BME280;48509;52.122;5.250;2022-11-04T10:19:22;100672.0;;;12.89;93.7
62458;BME280;48509;52.122;5.250;2022-11-04T10:20:20;100675.0;;;12.81;95.33
62458;BME280;48509;52.122;5.250;2022-11-04T10:21:13;100675.0;;;12.81;95.33
62458;BME280;48509;52.122;5.250;2022-11-04T10:22:09;100681.0;;;12.79;94.62
62458;BME280;48509;52.122;5.250;2022-11-04T10:23:01;100681.0;;;12.79;94.62
62458;BME280;48509;52.122;5.250;2022-11-04T10:24:04;100685.0;;;12.99;93.54
62458;BME280;48509;52.122;5.250;2022-11-04T10:24:50;100685.0;;;12.99;93.54
62458;BME280;48509;52.122;5.250;2022-11-04T10:25:47;100687.0;;;12.82;94.69
62458;BME280;48509;52.122;5.250;2022-11-04T10:26:37;100687.0;;;12.82;94.69
62458;BME280;48509;52.122;5.250;2022-11-04T10:28:21;100686.0;;;13.0;91.64
62458;BME280;48509;52.122;5.250;2022-11-04T10:29:07;100686.0;;;13.0;91.64
62458;BME280;48509;52.122;5.250;2022-11-04T10:30:01;100692.0;;;12.88;93.41
62458;BME280;48509;52.122;5.250;2022-11-04T10:30:50;100692.0;;;12.88;93.41
62458;BME280;48509;52.122;5.250;2022-11-04T10:32:31;100696.0;;;12.98;93.26
62458;BME280;48509;52.122;5.250;2022-11-04T10:33:26;100696.0;;;12.98;93.26
62458;BME280;48509;52.122;5.250;2022-11-04T10:34:21;100697.0;;;12.93;93.32
62458;BME280;48509;52.122;5.250;2022-11-04T10:35:14;100697.0;;;12.93;93.32
62458;BME280;48509;52.122;5.250;2022-11-04T10:36:57;100697.0;;;12.98;92.31
62458;BME280;48509;52.122;5.250;2022-11-04T10:37:42;100697.0;;;12.98;92.31
62458;BME280;48509;52.122;5.250;2022-11-04T10:38:37;100700.0;;;13.13;92.39
62458;BME280;48509;52.122;5.250;2022-11-04T10:39:25;100700.0;;;13.13;92.39
62458;BME280;48509;52.122;5.250;2022-11-04T10:41:14;100698.0;;;13.26;90.77
62458;BME280;48509;52.122;5.250;2022-11-04T10:41:59;100698.0;;;13.26;90.77
62458;BME280;48509;52.122;5.250;2022-11-04T10:42:57;100696.0;;;13.36;89.83
62458;BME280;48509;52.122;5.250;2022-11-04T10:43:38;100696.0;;;13.36;89.83
62458;BME280;48509;52.122;5.250;2022-11-04T10:44:36;100697.0;;;13.14;90.56
62458;BME280;48509;52.122;5.250;2022-11-04T10:45:15;100697.0;;;13.14;90.56
62458;BME280;48509;52.122;5.250;2022-11-04T10:46:57;100691.0;;;13.19;90.53
62458;BME280;48509;52.122;5.250;2022-11-04T10:48:07;100691.0;;;13.19;90.53
62458;BME280;48509;52.122;5.250;2022-11-04T10:49:56;100692.0;;;13.21;91.82
62458;BME280;48509;52.122;5.250;2022-11-04T10:50:29;100692.0;;;13.21;91.82
62458;BME280;48509;52.122;5.250;2022-11-04T10:51:36;100691.0;;;13.33;90.02
62458;BME280;48509;52.122;5.250;2022-11-04T10:52:09;100691.0;;;13.33;90.02
62458;BME280;48509;52.122;5.250;2022-11-04T10:53:14;100696.0;;;13.26;91.02
62458;BME280;48509;52.122;5.250;2022-11-04T10:53:46;100696.0;;;13.26;91.02
62458;BME280;48509;52.122;5.250;2022-11-04T10:55:34;100694.0;;;13.36;91.02
62458;BME280;48509;52.122;5.250;2022-11-04T10:56:34;100694.0;;;13.36;91.02
62458;BME280;48509;52.122;5.250;2022-11-04T10:57:18;100694.0;;;13.49;90.36
62458;BME280;48509;52.122;5.250;2022-11-04T10:58:17;100694.0;;;13.49;90.36
62458;BME280;48509;52.122;5.250;2022-11-04T10:59:57;100696.0;;;13.6;90.03